KCNO/CNO METAR and TAF weather

Enter ICAO airport designator
Station Type Date Time Source
KCNO METAR 2022/08/13 10:53 UTC NOAA

KCNO 131053Z AUTO 00000KT 10SM CLR 22/12 A2995 RMK AO2 SLP134 T02170117


Station Type Date Time Source
KCNO Decoded METAR 2022/08/13 10:53 UTC NOAA

CHINO AIRPORT, CA, United States (KCNO) 33-58N 117-38W 207M
Aug 13, 2022 - 06:53 AM EDT / 2022.08.13 1053 UTC
Wind: Calm:0
Visibility: 10 mile(s):0
Sky conditions: clear
Temperature: 71.1 F (21.7 C)
Dew Point: 53.1 F (11.7 C)
Relative Humidity: 52%
Pressure (altimeter): 29.95 in. Hg (1014 hPa)
ob: KCNO 131053Z AUTO 00000KT 10SM CLR 22/12 A2995 RMK AO2 SLP134 T02170117
cycle: 11

Station Type Date Time Source
KCNO TAF UTC NOAA

Error!

Example: see airport list